sensor_id;sensor_type;location;lat;lon;timestamp;pressure;altitude;pressure_sealevel;temperature;humidity
28628;BME280;15815;46.760;19.604;2022-08-01T00:00:05;100146.44;;;21.25;52.24
28628;BME280;15815;46.760;19.604;2022-08-01T00:02:31;100154.84;;;21.19;52.14
28628;BME280;15815;46.760;19.604;2022-08-01T00:04:57;100153.75;;;21.17;52.39
28628;BME280;15815;46.760;19.604;2022-08-01T00:07:22;100159.94;;;21.15;52.27
28628;BME280;15815;46.760;19.604;2022-08-01T00:09:48;100151.84;;;21.14;52.48
28628;BME280;15815;46.760;19.604;2022-08-01T00:12:13;100154.56;;;21.08;52.61
28628;BME280;15815;46.760;19.604;2022-08-01T00:14:39;100163.78;;;21.03;52.32
28628;BME280;15815;46.760;19.604;2022-08-01T00:17:04;100165.38;;;21.04;52.28
28628;BME280;15815;46.760;19.604;2022-08-01T00:19:29;100153.16;;;21.04;52.33
28628;BME280;15815;46.760;19.604;2022-08-01T00:21:55;100145.38;;;21.04;51.90
28628;BME280;15815;46.760;19.604;2022-08-01T00:24:20;100151.38;;;21.06;51.72
28628;BME280;15815;46.760;19.604;2022-08-01T00:26:45;100144.41;;;21.07;51.92
28628;BME280;15815;46.760;19.604;2022-08-01T00:29:11;100147.25;;;21.07;52.02
28628;BME280;15815;46.760;19.604;2022-08-01T00:31:36;100135.69;;;21.02;51.82
28628;BME280;15815;46.760;19.604;2022-08-01T00:34:02;100142.19;;;21.02;52.12
28628;BME280;15815;46.760;19.604;2022-08-01T00:36:27;100136.16;;;21.00;52.36
28628;BME280;15815;46.760;19.604;2022-08-01T00:38:52;100133.97;;;20.95;52.66
28628;BME280;15815;46.760;19.604;2022-08-01T00:41:18;100128.59;;;20.88;52.47
28628;BME280;15815;46.760;19.604;2022-08-01T00:43:43;100124.16;;;20.78;53.05
28628;BME280;15815;46.760;19.604;2022-08-01T00:46:09;100119.75;;;20.67;53.20
28628;BME280;15815;46.760;19.604;2022-08-01T00:48:34;100131.69;;;20.57;53.24
28628;BME280;15815;46.760;19.604;2022-08-01T00:51:00;100140.41;;;20.44;54.34
28628;BME280;15815;46.760;19.604;2022-08-01T00:53:25;100124.53;;;20.34;54.36
28628;BME280;15815;46.760;19.604;2022-08-01T00:55:50;100117.41;;;20.29;54.18
28628;BME280;15815;46.760;19.604;2022-08-01T00:58:16;100128.34;;;20.31;54.82
28628;BME280;15815;46.760;19.604;2022-08-01T01:00:42;100123.13;;;20.29;54.18
28628;BME280;15815;46.760;19.604;2022-08-01T01:03:07;100121.53;;;20.28;54.62
28628;BME280;15815;46.760;19.604;2022-08-01T01:05:38;100135.94;;;20.25;54.84
28628;BME280;15815;46.760;19.604;2022-08-01T01:08:12;100131.66;;;20.20;54.60
28628;BME280;15815;46.760;19.604;2022-08-01T01:10:54;100122.63;;;20.22;54.39
28628;BME280;15815;46.760;19.604;2022-08-01T01:13:43;100109.78;;;20.26;54.31
28628;BME280;15815;46.760;19.604;2022-08-01T01:16:12;100120.88;;;20.24;54.34
28628;BME280;15815;46.760;19.604;2022-08-01T01:19:08;100119.28;;;20.23;54.69
28628;BME280;15815;46.760;19.604;2022-08-01T01:24:35;100115.97;;;20.25;54.38
28628;BME280;15815;46.760;19.604;2022-08-01T01:27:30;100109.47;;;20.24;54.70
28628;BME280;15815;46.760;19.604;2022-08-01T01:30:01;100101.06;;;20.21;54.70
28628;BME280;15815;46.760;19.604;2022-08-01T01:32:38;100108.34;;;20.22;54.52
28628;BME280;15815;46.760;19.604;2022-08-01T01:35:14;100112.78;;;20.23;54.51
28628;BME280;15815;46.760;19.604;2022-08-01T01:37:42;100094.09;;;20.22;54.78
28628;BME280;15815;46.760;19.604;2022-08-01T01:40:10;100098.84;;;20.16;55.09
28628;BME280;15815;46.760;19.604;2022-08-01T01:42:37;100103.59;;;20.10;54.85
28628;BME280;15815;46.760;19.604;2022-08-01T01:45:05;100099.81;;;20.03;55.42
28628;BME280;15815;46.760;19.604;2022-08-01T01:47:32;100095.50;;;19.99;55.26
28628;BME280;15815;46.760;19.604;2022-08-01T01:49:59;100094.09;;;19.94;55.32
28628;BME280;15815;46.760;19.604;2022-08-01T01:52:26;100090.59;;;19.90;55.37
28628;BME280;15815;46.760;19.604;2022-08-01T01:54:54;100093.44;;;19.90;55.69
28628;BME280;15815;46.760;19.604;2022-08-01T01:57:21;100099.16;;;19.90;55.93
28628;BME280;15815;46.760;19.604;2022-08-01T01:59:49;100095.34;;;19.93;55.94
28628;BME280;15815;46.760;19.604;2022-08-01T02:02:16;100095.19;;;19.97;55.65
28628;BME280;15815;46.760;19.604;2022-08-01T02:04:43;100093.78;;;19.92;55.32
28628;BME280;15815;46.760;19.604;2022-08-01T02:07:12;100098.22;;;19.84;55.76
28628;BME280;15815;46.760;19.604;2022-08-01T02:09:40;100084.25;;;19.77;56.18
28628;BME280;15815;46.760;19.604;2022-08-01T02:12:08;100090.56;;;19.72;56.06
28628;BME280;15815;46.760;19.604;2022-08-01T02:14:35;100089.63;;;19.66;56.37
28628;BME280;15815;46.760;19.604;2022-08-01T02:17:01;100085.50;;;19.67;56.70
28628;BME280;15815;46.760;19.604;2022-08-01T02:19:29;100088.81;;;19.65;56.67
28628;BME280;15815;46.760;19.604;2022-08-01T02:22:00;100091.03;;;19.61;56.88
28628;BME280;15815;46.760;19.604;2022-08-01T02:24:35;100090.56;;;19.63;56.42
28628;BME280;15815;46.760;19.604;2022-08-01T02:27:06;100092.47;;;19.66;56.36
28628;BME280;15815;46.760;19.604;2022-08-01T02:29:53;100087.72;;;19.63;57.11
28628;BME280;15815;46.760;19.604;2022-08-01T02:32:36;100093.72;;;19.65;56.28
28628;BME280;15815;46.760;19.604;2022-08-01T02:35:05;100092.47;;;19.57;56.48
28628;BME280;15815;46.760;19.604;2022-08-01T02:37:34;100088.03;;;19.56;56.52
28628;BME280;15815;46.760;19.604;2022-08-01T02:40:02;100095.13;;;19.51;56.64
28628;BME280;15815;46.760;19.604;2022-08-01T02:42:29;100098.13;;;19.48;57.15
28628;BME280;15815;46.760;19.604;2022-08-01T02:44:56;100095.75;;;19.46;56.73
28628;BME280;15815;46.760;19.604;2022-08-01T02:47:23;100083.19;;;19.43;57.00
28628;BME280;15815;46.760;19.604;2022-08-01T02:49:51;100081.44;;;19.37;57.27
28628;BME280;15815;46.760;19.604;2022-08-01T02:52:19;100090.47;;;19.35;57.19
28628;BME280;15815;46.760;19.604;2022-08-01T02:54:47;100094.59;;;19.34;57.54
28628;BME280;15815;46.760;19.604;2022-08-01T02:57:14;100088.25;;;19.30;57.61
28628;BME280;15815;46.760;19.604;2022-08-01T02:59:41;100095.22;;;19.29;57.41
28628;BME280;15815;46.760;19.604;2022-08-01T03:02:08;100091.06;;;19.21;58.02
28628;BME280;15815;46.760;19.604;2022-08-01T03:04:37;100084.69;;;19.17;58.07
28628;BME280;15815;46.760;19.604;2022-08-01T03:07:04;100089.44;;;19.11;58.48
28628;BME280;15815;46.760;19.604;2022-08-01T03:09:34;100089.91;;;19.09;58.10
28628;BME280;15815;46.760;19.604;2022-08-01T03:12:03;100081.69;;;19.11;58.66
28628;BME280;15815;46.760;19.604;2022-08-01T03:14:30;100083.41;;;19.09;58.57
28628;BME280;15815;46.760;19.604;2022-08-01T03:16:59;100094.00;;;19.08;58.77
28628;BME280;15815;46.760;19.604;2022-08-01T03:19:26;100100.03;;;19.10;58.55
28628;BME280;15815;46.760;19.604;2022-08-01T03:21:54;100097.19;;;19.10;58.49
28628;BME280;15815;46.760;19.604;2022-08-01T03:24:21;100106.84;;;19.13;58.52
28628;BME280;15815;46.760;19.604;2022-08-01T03:26:47;100103.81;;;19.07;59.06
28628;BME280;15815;46.760;19.604;2022-08-01T03:29:19;100095.91;;;19.02;58.67
28628;BME280;15815;46.760;19.604;2022-08-01T03:31:48;100102.53;;;18.99;58.85
28628;BME280;15815;46.760;19.604;2022-08-01T03:34:14;100100.44;;;18.91;59.18
28628;BME280;15815;46.760;19.604;2022-08-01T03:36:53;100096.88;;;18.77;60.00
28628;BME280;15815;46.760;19.604;2022-08-01T03:39:22;100098.09;;;18.67;60.03
28628;BME280;15815;46.760;19.604;2022-08-01T03:41:54;100096.72;;;18.59;60.56
28628;BME280;15815;46.760;19.604;2022-08-01T03:44:24;100097.94;;;18.49;60.66
28628;BME280;15815;46.760;19.604;2022-08-01T03:47:03;100104.56;;;18.46;61.16
28628;BME280;15815;46.760;19.604;2022-08-01T03:49:32;100095.84;;;18.40;61.44
28628;BME280;15815;46.760;19.604;2022-08-01T03:52:01;100105.78;;;18.36;61.44
28628;BME280;15815;46.760;19.604;2022-08-01T03:54:30;100105.88;;;18.32;61.42
28628;BME280;15815;46.760;19.604;2022-08-01T03:57:00;100100.66;;;18.31;61.79
28628;BME280;15815;46.760;19.604;2022-08-01T03:59:26;100102.03;;;18.26;62.04
28628;BME280;15815;46.760;19.604;2022-08-01T04:01:53;100105.69;;;18.27;62.15
28628;BME280;15815;46.760;19.604;2022-08-01T04:04:20;100112.16;;;18.27;62.30
28628;BME280;15815;46.760;19.604;2022-08-01T04:06:45;100110.13;;;18.28;62.25
28628;BME280;15815;46.760;19.604;2022-08-01T04:09:11;100107.59;;;18.30;63.09
28628;BME280;15815;46.760;19.604;2022-08-01T04:11:37;100115.44;;;18.38;62.43
28628;BME280;15815;46.760;19.604;2022-08-01T04:14:03;100115.34;;;18.51;62.05
28628;BME280;15815;46.760;19.604;2022-08-01T04:16:28;100116.75;;;18.68;61.55
28628;BME280;15815;46.760;19.604;2022-08-01T04:18:53;100119.66;;;18.77;61.23
28628;BME280;15815;46.760;19.604;2022-08-01T04:21:22;100110.34;;;18.86;60.29
28628;BME280;15815;46.760;19.604;2022-08-01T04:23:49;100116.31;;;19.01;59.65
28628;BME280;15815;46.760;19.604;2022-08-01T04:26:18;100127.59;;;19.13;59.29
28628;BME280;15815;46.760;19.604;2022-08-01T04:28:45;100132.41;;;19.26;58.94
28628;BME280;15815;46.760;19.604;2022-08-01T04:31:14;100130.22;;;19.39;58.93
28628;BME280;15815;46.760;19.604;2022-08-01T04:33:43;100134.56;;;19.53;59.41
28628;BME280;15815;46.760;19.604;2022-08-01T04:36:12;100139.97;;;19.60;59.96
28628;BME280;15815;46.760;19.604;2022-08-01T04:38:40;100145.38;;;19.67;58.81
28628;BME280;15815;46.760;19.604;2022-08-01T04:41:09;100137.66;;;19.77;58.18
28628;BME280;15815;46.760;19.604;2022-08-01T04:43:37;100152.41;;;19.84;58.67
28628;BME280;15815;46.760;19.604;2022-08-01T04:46:03;100138.28;;;19.90;58.29
28628;BME280;15815;46.760;19.604;2022-08-01T04:48:29;100136.72;;;19.98;58.39
28628;BME280;15815;46.760;19.604;2022-08-01T04:50:56;100134.03;;;20.03;58.33
28628;BME280;15815;46.760;19.604;2022-08-01T04:53:22;100131.66;;;20.11;57.57
28628;BME280;15815;46.760;19.604;2022-08-01T04:55:47;100135.78;;;20.19;57.04
28628;BME280;15815;46.760;19.604;2022-08-01T04:58:14;100122.31;;;20.29;57.66
28628;BME280;15815;46.760;19.604;2022-08-01T05:00:40;100121.03;;;20.39;56.95
28628;BME280;15815;46.760;19.604;2022-08-01T05:03:06;100115.34;;;20.48;56.86
28628;BME280;15815;46.760;19.604;2022-08-01T05:05:31;100122.63;;;20.58;56.64
28628;BME280;15815;46.760;19.604;2022-08-01T05:07:57;100120.72;;;20.64;56.34
28628;BME280;15815;46.760;19.604;2022-08-01T05:10:22;100124.50;;;20.71;56.21
28628;BME280;15815;46.760;19.604;2022-08-01T05:12:47;100115.91;;;20.80;56.25
28628;BME280;15815;46.760;19.604;2022-08-01T05:15:13;100121.78;;;20.85;55.76
28628;BME280;15815;46.760;19.604;2022-08-01T05:17:38;100124.78;;;20.91;55.77
28628;BME280;15815;46.760;19.604;2022-08-01T05:20:04;100121.56;;;20.98;55.83
28628;BME280;15815;46.760;19.604;2022-08-01T05:22:31;100122.03;;;21.06;56.12
28628;BME280;15815;46.760;19.604;2022-08-01T05:24:57;100119.94;;;21.15;55.59
28628;BME280;15815;46.760;19.604;2022-08-01T05:27:22;100130.56;;;21.24;55.13
28628;BME280;15815;46.760;19.604;2022-08-01T05:29:48;100124.66;;;21.37;55.06
28628;BME280;15815;46.760;19.604;2022-08-01T05:32:13;100121.72;;;21.46;55.07
28628;BME280;15815;46.760;19.604;2022-08-01T05:34:38;100129.94;;;21.53;54.48
28628;BME280;15815;46.760;19.604;2022-08-01T05:37:04;100129.88;;;21.62;54.12
28628;BME280;15815;46.760;19.604;2022-08-01T05:39:29;100126.38;;;21.67;54.05
28628;BME280;15815;46.760;19.604;2022-08-01T05:41:55;100139.03;;;21.75;53.92
28628;BME280;15815;46.760;19.604;2022-08-01T05:44:20;100134.53;;;21.83;54.11
28628;BME280;15815;46.760;19.604;2022-08-01T05:46:45;100139.72;;;21.94;54.38
28628;BME280;15815;46.760;19.604;2022-08-01T05:49:11;100138.69;;;22.06;54.68
28628;BME280;15815;46.760;19.604;2022-08-01T05:51:36;100137.81;;;22.15;54.14
28628;BME280;15815;46.760;19.604;2022-08-01T05:54:02;100133.94;;;22.27;54.03
28628;BME280;15815;46.760;19.604;2022-08-01T05:56:28;100142.53;;;22.42;54.91
28628;BME280;15815;46.760;19.604;2022-08-01T05:58:53;100143.38;;;22.57;54.08
28628;BME280;15815;46.760;19.604;2022-08-01T06:01:19;100146.56;;;22.74;53.74
28628;BME280;15815;46.760;19.604;2022-08-01T06:03:45;100148.66;;;22.88;53.35
28628;BME280;15815;46.760;19.604;2022-08-01T06:06:11;100143.72;;;23.03;53.17
28628;BME280;15815;46.760;19.604;2022-08-01T06:08:36;100147.34;;;23.19;52.90
28628;BME280;15815;46.760;19.604;2022-08-01T06:11:02;100152.00;;;23.31;51.57
28628;BME280;15815;46.760;19.604;2022-08-01T06:13:27;100149.72;;;23.35;50.84
28628;BME280;15815;46.760;19.604;2022-08-01T06:15:53;100145.63;;;23.41;50.77
28628;BME280;15815;46.760;19.604;2022-08-01T06:18:19;100152.03;;;23.51;51.28
28628;BME280;15815;46.760;19.604;2022-08-01T06:20:45;100155.91;;;23.63;51.10
28628;BME280;15815;46.760;19.604;2022-08-01T06:23:10;100155.34;;;23.79;50.65
28628;BME280;15815;46.760;19.604;2022-08-01T06:25:35;100155.81;;;23.92;51.01
28628;BME280;15815;46.760;19.604;2022-08-01T06:28:01;100156.22;;;24.05;49.83
28628;BME280;15815;46.760;19.604;2022-08-01T06:30:26;100148.84;;;24.19;50.23
28628;BME280;15815;46.760;19.604;2022-08-01T06:32:52;100153.88;;;24.45;50.09
28628;BME280;15815;46.760;19.604;2022-08-01T06:35:17;100140.19;;;24.60;48.68
28628;BME280;15815;46.760;19.604;2022-08-01T06:37:43;100144.72;;;24.67;47.51
28628;BME280;15815;46.760;19.604;2022-08-01T06:40:11;100146.06;;;24.71;47.76
28628;BME280;15815;46.760;19.604;2022-08-01T06:42:37;100141.13;;;24.72;46.37
28628;BME280;15815;46.760;19.604;2022-08-01T06:45:10;100145.63;;;24.78;45.93
28628;BME280;15815;46.760;19.604;2022-08-01T06:47:37;100139.91;;;24.84;46.96
28628;BME280;15815;46.760;19.604;2022-08-01T06:50:03;100146.66;;;25.01;46.87
28628;BME280;15815;46.760;19.604;2022-08-01T06:52:29;100151.47;;;25.15;46.49
28628;BME280;15815;46.760;19.604;2022-08-01T06:54:54;100147.38;;;25.22;45.35
28628;BME280;15815;46.760;19.604;2022-08-01T06:57:19;100144.56;;;25.33;45.57
28628;BME280;15815;46.760;19.604;2022-08-01T06:59:45;100140.94;;;25.38;44.44
28628;BME280;15815;46.760;19.604;2022-08-01T07:02:10;100139.91;;;25.41;44.11
28628;BME280;15815;46.760;19.604;2022-08-01T07:04:36;100140.25;;;25.49;44.14
28628;BME280;15815;46.760;19.604;2022-08-01T07:07:02;100145.81;;;25.64;43.89
28628;BME280;15815;46.760;19.604;2022-08-01T07:09:27;100144.00;;;25.66;43.52
28628;BME280;15815;46.760;19.604;2022-08-01T07:11:53;100147.22;;;25.74;45.00
28628;BME280;15815;46.760;19.604;2022-08-01T07:14:21;100142.56;;;25.82;43.19
28628;BME280;15815;46.760;19.604;2022-08-01T07:16:46;100137.34;;;25.86;43.13
28628;BME280;15815;46.760;19.604;2022-08-01T07:19:12;100125.31;;;25.87;43.50
28628;BME280;15815;46.760;19.604;2022-08-01T07:21:38;100130.84;;;25.91;43.03
28628;BME280;15815;46.760;19.604;2022-08-01T07:24:04;100123.53;;;26.01;44.25
28628;BME280;15815;46.760;19.604;2022-08-01T07:26:29;100136.69;;;26.13;42.36
28628;BME280;15815;46.760;19.604;2022-08-01T07:28:55;100129.41;;;26.24;42.21
28628;BME280;15815;46.760;19.604;2022-08-01T07:31:20;100135.69;;;26.28;42.09
28628;BME280;15815;46.760;19.604;2022-08-01T07:33:45;100127.09;;;26.33;41.77
28628;BME280;15815;46.760;19.604;2022-08-01T07:36:11;100129.50;;;26.35;42.97
28628;BME280;15815;46.760;19.604;2022-08-01T07:38:36;100120.31;;;26.36;42.06
28628;BME280;15815;46.760;19.604;2022-08-01T07:41:02;100124.53;;;26.41;42.31
28628;BME280;15815;46.760;19.604;2022-08-01T07:43:27;100120.88;;;26.46;42.19
28628;BME280;15815;46.760;19.604;2022-08-01T07:45:53;100121.94;;;26.54;42.33
28628;BME280;15815;46.760;19.604;2022-08-01T07:48:18;100112.53;;;26.59;42.44
28628;BME280;15815;46.760;19.604;2022-08-01T07:50:45;100112.53;;;26.65;42.32
28628;BME280;15815;46.760;19.604;2022-08-01T07:53:11;100113.84;;;26.69;42.26
28628;BME280;15815;46.760;19.604;2022-08-01T07:55:36;100108.34;;;26.77;42.06
28628;BME280;15815;46.760;19.604;2022-08-01T07:58:01;100112.00;;;26.83;40.93
28628;BME280;15815;46.760;19.604;2022-08-01T08:00:27;100112.31;;;26.91;40.79
28628;BME280;15815;46.760;19.604;2022-08-01T08:02:53;100124.09;;;26.98;40.38
28628;BME280;15815;46.760;19.604;2022-08-01T08:05:19;100117.31;;;27.07;41.08
28628;BME280;15815;46.760;19.604;2022-08-01T08:07:45;100120.44;;;27.09;40.71
28628;BME280;15815;46.760;19.604;2022-08-01T08:10:10;100121.25;;;27.15;42.28
28628;BME280;15815;46.760;19.604;2022-08-01T08:12:36;100121.25;;;27.15;40.43
28628;BME280;15815;46.760;19.604;2022-08-01T08:15:02;100119.41;;;27.18;39.65
28628;BME280;15815;46.760;19.604;2022-08-01T08:17:31;100125.97;;;27.18;39.17
28628;BME280;15815;46.760;19.604;2022-08-01T08:19:57;100123.34;;;27.20;40.31
28628;BME280;15815;46.760;19.604;2022-08-01T08:22:23;100123.09;;;27.24;39.32
28628;BME280;15815;46.760;19.604;2022-08-01T08:24:48;100118.88;;;27.30;39.22
28628;BME280;15815;46.760;19.604;2022-08-01T08:27:14;100117.81;;;27.39;38.13
28628;BME280;15815;46.760;19.604;2022-08-01T08:29:40;100118.88;;;27.42;38.81
28628;BME280;15815;46.760;19.604;2022-08-01T08:32:07;100125.97;;;27.46;39.87
28628;BME280;15815;46.760;19.604;2022-08-01T08:34:32;100124.91;;;27.49;39.15
28628;BME280;15815;46.760;19.604;2022-08-01T08:36:58;100120.69;;;27.50;38.37
28628;BME280;15815;46.760;19.604;2022-08-01T08:39:25;100125.16;;;27.51;39.14
28628;BME280;15815;46.760;19.604;2022-08-01T08:41:50;100129.09;;;27.54;38.94
28628;BME280;15815;46.760;19.604;2022-08-01T08:44:17;100122.53;;;27.64;37.84
28628;BME280;15815;46.760;19.604;2022-08-01T08:46:47;100124.09;;;27.65;38.13
28628;BME280;15815;46.760;19.604;2022-08-01T08:49:25;100130.66;;;27.77;36.47
28628;BME280;15815;46.760;19.604;2022-08-01T08:51:52;100130.09;;;27.84;36.99
28628;BME280;15815;46.760;19.604;2022-08-01T08:54:20;100132.16;;;27.89;37.52
28628;BME280;15815;46.760;19.604;2022-08-01T08:56:47;100131.38;;;27.94;37.70
28628;BME280;15815;46.760;19.604;2022-08-01T08:59:14;100125.88;;;27.96;37.40
28628;BME280;15815;46.760;19.604;2022-08-01T09:01:40;100125.06;;;28.01;38.02
28628;BME280;15815;46.760;19.604;2022-08-01T09:04:05;100117.16;;;28.08;37.74
28628;BME280;15815;46.760;19.604;2022-08-01T09:06:32;100123.69;;;28.14;36.61
28628;BME280;15815;46.760;19.604;2022-08-01T09:08:58;100126.28;;;28.17;37.28
28628;BME280;15815;46.760;19.604;2022-08-01T09:11:24;100118.41;;;28.18;36.52
28628;BME280;15815;46.760;19.604;2022-08-01T09:14:18;100118.66;;;28.20;35.76
28628;BME280;15815;46.760;19.604;2022-08-01T09:17:08;100123.16;;;28.26;34.57
28628;BME280;15815;46.760;19.604;2022-08-01T09:19:42;100118.16;;;28.27;35.48
28628;BME280;15815;46.760;19.604;2022-08-01T09:22:11;100116.84;;;28.28;36.64
28628;BME280;15815;46.760;19.604;2022-08-01T09:24:37;100126.81;;;28.27;36.27
28628;BME280;15815;46.760;19.604;2022-08-01T09:27:19;100114.44;;;28.32;35.51
28628;BME280;15815;46.760;19.604;2022-08-01T09:29:45;100111.56;;;28.32;36.42
28628;BME280;15815;46.760;19.604;2022-08-01T09:32:10;100114.69;;;28.34;36.14
28628;BME280;15815;46.760;19.604;2022-08-01T09:34:36;100107.31;;;28.39;35.59
28628;BME280;15815;46.760;19.604;2022-08-01T09:37:02;100107.03;;;28.42;36.36
28628;BME280;15815;46.760;19.604;2022-08-01T09:39:28;100116.19;;;28.46;35.08
28628;BME280;15815;46.760;19.604;2022-08-01T09:41:56;100112.50;;;28.51;34.92
28628;BME280;15815;46.760;19.604;2022-08-01T09:44:42;100108.28;;;28.52;35.09
28628;BME280;15815;46.760;19.604;2022-08-01T09:47:08;100115.66;;;28.53;35.68
28628;BME280;15815;46.760;19.604;2022-08-01T09:49:35;100115.91;;;28.55;35.08
28628;BME280;15815;46.760;19.604;2022-08-01T09:52:11;100115.34;;;28.57;35.20
28628;BME280;15815;46.760;19.604;2022-08-01T09:54:37;100105.91;;;28.56;35.96
28628;BME280;15815;46.760;19.604;2022-08-01T09:57:15;100108.75;;;28.62;35.41
28628;BME280;15815;46.760;19.604;2022-08-01T09:59:43;100111.34;;;28.66;33.55
28628;BME280;15815;46.760;19.604;2022-08-01T10:02:13;100108.69;;;28.68;34.96
28628;BME280;15815;46.760;19.604;2022-08-01T10:04:47;100111.84;;;28.70;34.44
28628;BME280;15815;46.760;19.604;2022-08-01T10:07:13;100110.53;;;28.71;34.62
28628;BME280;15815;46.760;19.604;2022-08-01T10:09:41;100123.91;;;28.74;35.22
28628;BME280;15815;46.760;19.604;2022-08-01T10:12:07;100099.19;;;28.73;34.04
28628;BME280;15815;46.760;19.604;2022-08-01T10:14:33;100096.56;;;28.75;34.38
28628;BME280;15815;46.760;19.604;2022-08-01T10:16:59;100101.00;;;28.81;33.19
28628;BME280;15815;46.760;19.604;2022-08-01T10:19:27;100102.78;;;28.90;33.38
28628;BME280;15815;46.760;19.604;2022-08-01T10:21:54;100091.47;;;28.92;33.74
28628;BME280;15815;46.760;19.604;2022-08-01T10:24:21;100105.09;;;28.97;34.63
28628;BME280;15815;46.760;19.604;2022-08-01T10:27:08;100097.97;;;28.98;33.69
28628;BME280;15815;46.760;19.604;2022-08-01T10:29:39;100100.38;;;28.94;33.99
28628;BME280;15815;46.760;19.604;2022-08-01T10:32:05;100093.56;;;28.91;33.80
28628;BME280;15815;46.760;19.604;2022-08-01T10:34:33;100091.72;;;28.94;35.13
28628;BME280;15815;46.760;19.604;2022-08-01T10:36:59;100078.28;;;28.97;34.14
28628;BME280;15815;46.760;19.604;2022-08-01T10:39:25;100082.19;;;28.99;33.79
28628;BME280;15815;46.760;19.604;2022-08-01T10:41:54;100080.84;;;29.06;35.11
28628;BME280;15815;46.760;19.604;2022-08-01T10:44:20;100079.94;;;29.16;35.34
28628;BME280;15815;46.760;19.604;2022-08-01T10:46:48;100078.88;;;29.19;33.81
28628;BME280;15815;46.760;19.604;2022-08-01T10:49:17;100085.88;;;29.30;34.82
28628;BME280;15815;46.760;19.604;2022-08-01T10:51:45;100070.03;;;29.36;34.79
28628;BME280;15815;46.760;19.604;2022-08-01T10:54:12;100076.81;;;29.44;33.76
28628;BME280;15815;46.760;19.604;2022-08-01T10:56:48;100075.97;;;29.49;34.16
28628;BME280;15815;46.760;19.604;2022-08-01T10:59:20;100061.25;;;29.47;34.60
28628;BME280;15815;46.760;19.604;2022-08-01T11:01:59;100069.38;;;29.49;33.67
28628;BME280;15815;46.760;19.604;2022-08-01T11:05:04;100073.53;;;29.53;33.95
28628;BME280;15815;46.760;19.604;2022-08-01T11:07:55;100073.19;;;29.63;33.06
28628;BME280;15815;46.760;19.604;2022-08-01T11:10:41;100076.28;;;29.70;34.07
28628;BME280;15815;46.760;19.604;2022-08-01T11:13:08;100077.06;;;29.71;33.10
28628;BME280;15815;46.760;19.604;2022-08-01T11:15:36;100071.25;;;29.71;33.67
28628;BME280;15815;46.760;19.604;2022-08-01T11:18:48;100066.50;;;29.73;33.29
28628;BME280;15815;46.760;19.604;2022-08-01T11:20:56;100064.06;;;29.77;34.91
28628;BME280;15815;46.760;19.604;2022-08-01T11:23:23;100058.28;;;29.77;35.07
28628;BME280;15815;46.760;19.604;2022-08-01T11:30:50;100057.97;;;29.81;33.86
28628;BME280;15815;46.760;19.604;2022-08-01T11:33:18;100052.94;;;29.81;34.00
28628;BME280;15815;46.760;19.604;2022-08-01T11:41:23;100048.88;;;29.71;34.15
28628;BME280;15815;46.760;19.604;2022-08-01T11:44:03;100057.09;;;29.67;34.28
28628;BME280;15815;46.760;19.604;2022-08-01T11:49:32;100059.19;;;29.67;35.68
28628;BME280;15815;46.760;19.604;2022-08-01T11:54:35;100048.88;;;29.71;34.21
28628;BME280;15815;46.760;19.604;2022-08-01T11:57:09;100044.41;;;29.70;32.85
28628;BME280;15815;46.760;19.604;2022-08-01T11:59:43;100059.75;;;29.65;34.03
28628;BME280;15815;46.760;19.604;2022-08-01T12:07:17;100051.91;;;29.60;33.32
28628;BME280;15815;46.760;19.604;2022-08-01T12:09:42;100055.59;;;29.61;33.18
28628;BME280;15815;46.760;19.604;2022-08-01T12:12:09;100052.38;;;29.64;34.46
28628;BME280;15815;46.760;19.604;2022-08-01T12:14:35;100045.19;;;29.71;33.57
28628;BME280;15815;46.760;19.604;2022-08-01T12:17:00;100055.13;;;29.75;33.57
28628;BME280;15815;46.760;19.604;2022-08-01T12:19:25;100050.38;;;29.78;33.69
28628;BME280;15815;46.760;19.604;2022-08-01T12:22:13;100045.00;;;29.88;32.64
28628;BME280;15815;46.760;19.604;2022-08-01T12:24:40;100046.25;;;29.92;33.34
28628;BME280;15815;46.760;19.604;2022-08-01T12:27:07;100039.91;;;29.94;33.49
28628;BME280;15815;46.760;19.604;2022-08-01T12:29:38;100045.84;;;30.01;32.46
28628;BME280;15815;46.760;19.604;2022-08-01T12:32:15;100036.56;;;30.08;32.74
28628;BME280;15815;46.760;19.604;2022-08-01T12:34:45;100041.75;;;30.16;32.96
28628;BME280;15815;46.760;19.604;2022-08-01T12:37:11;100045.34;;;30.22;33.56
28628;BME280;15815;46.760;19.604;2022-08-01T12:39:38;100041.03;;;30.28;32.74
28628;BME280;15815;46.760;19.604;2022-08-01T12:42:06;100037.91;;;30.26;31.53
28628;BME280;15815;46.760;19.604;2022-08-01T12:44:32;100038.00;;;30.21;30.98
28628;BME280;15815;46.760;19.604;2022-08-01T12:46:58;100025.94;;;30.17;31.30
28628;BME280;15815;46.760;19.604;2022-08-01T12:49:24;100029.38;;;30.15;31.58
28628;BME280;15815;46.760;19.604;2022-08-01T12:51:50;100016.69;;;30.18;31.68
28628;BME280;15815;46.760;19.604;2022-08-01T12:54:16;100028.75;;;30.22;30.66
28628;BME280;15815;46.760;19.604;2022-08-01T12:56:41;100018.72;;;30.23;29.95
28628;BME280;15815;46.760;19.604;2022-08-01T12:59:21;100018.16;;;30.25;30.39
28628;BME280;15815;46.760;19.604;2022-08-01T13:01:49;100028.75;;;30.22;31.08
28628;BME280;15815;46.760;19.604;2022-08-01T13:04:14;100034.22;;;30.26;30.69
28628;BME280;15815;46.760;19.604;2022-08-01T13:06:40;100031.25;;;30.31;30.84
28628;BME280;15815;46.760;19.604;2022-08-01T13:09:06;100030.59;;;30.38;31.42